Time;durP1;ratioP1;P1;durP2;ratioP2;P2;SDS_P1;SDS_P2;PMS_P1;PMS_P2;Temp;Humidity;BMP_temperature;BMP_pressure;BME280_temperature;BME280_humidity;BME280_pressure;Samples;Min_cycle;Max_cycle;Signal;HPM_P1;HPM_P2
2023/12/27 00:00:31;;;;;;;12.43;3.25;;;4.50;99.90;;;;;;5034374;28;20071;-91
2023/12/27 00:02:58;;;;;;;13.18;3.35;;;4.60;99.90;;;;;;5034177;28;20481;-91
2023/12/27 00:05:23;;;;;;;13.63;4.38;;;4.60;99.90;;;;;;5034263;28;20017;-91
2023/12/27 00:07:49;;;;;;;7.13;3.50;;;4.60;99.90;;;;;;5034003;28;20040;-92
2023/12/27 00:10:15;;;;;;;8.05;3.47;;;4.60;99.90;;;;;;5035312;28;20059;-91
2023/12/27 00:12:41;;;;;;;8.73;3.10;;;4.70;99.90;;;;;;5034996;28;20047;-91
2023/12/27 00:15:07;;;;;;;10.25;3.35;;;4.70;99.90;;;;;;5033941;28;20032;-91
2023/12/27 00:17:34;;;;;;;9.02;3.38;;;4.70;99.90;;;;;;5034328;28;20499;-91
2023/12/27 00:20:00;;;;;;;13.60;3.30;;;4.70;99.90;;;;;;5034292;28;20025;-91
2023/12/27 00:22:25;;;;;;;16.95;3.60;;;4.80;99.90;;;;;;5035171;28;20044;-91
2023/12/27 00:24:51;;;;;;;7.72;2.58;;;4.80;99.90;;;;;;5035106;28;20029;-90
2023/12/27 00:27:20;;;;;;;7.82;3.38;;;4.80;99.90;;;;;;5033743;28;20033;-91
2023/12/27 00:29:46;;;;;;;10.57;2.13;;;4.80;99.90;;;;;;5034070;28;20025;-91
2023/12/27 00:32:12;;;;;;;13.93;3.13;;;4.90;99.90;;;;;;5031935;28;20124;-90
2023/12/27 00:34:38;;;;;;;7.85;1.98;;;4.90;99.90;;;;;;5033595;28;20025;-91
2023/12/27 00:37:04;;;;;;;17.38;2.72;;;4.90;99.90;;;;;;5033762;28;20055;-91
2023/12/27 00:39:30;;;;;;;8.07;2.35;;;5.00;99.90;;;;;;5033713;28;20492;-91
2023/12/27 00:41:56;;;;;;;9.18;2.40;;;5.00;99.90;;;;;;5033884;28;20026;-91
2023/12/27 00:44:22;;;;;;;9.25;2.15;;;5.00;99.90;;;;;;5033711;28;20021;-91
2023/12/27 00:46:47;;;;;;;11.15;2.60;;;5.10;99.90;;;;;;5033297;28;20036;-91
2023/12/27 00:49:13;;;;;;;13.43;2.63;;;5.10;99.90;;;;;;5035532;28;20081;-91
2023/12/27 00:51:39;;;;;;;8.93;2.13;;;5.10;99.90;;;;;;5034298;28;20028;-91
2023/12/27 00:54:05;;;;;;;11.65;2.10;;;5.10;99.90;;;;;;5033236;28;20025;-90
2023/12/27 00:56:30;;;;;;;16.13;3.05;;;5.10;99.90;;;;;;5034306;28;20480;-91
2023/12/27 00:58:57;;;;;;;9.43;2.05;;;5.10;99.90;;;;;;5032876;28;20025;-91
2023/12/27 01:01:22;;;;;;;16.15;2.60;;;5.10;99.90;;;;;;5033476;28;20029;-91
2023/12/27 01:03:48;;;;;;;9.07;2.15;;;5.10;99.90;;;;;;5033714;28;20373;-91
2023/12/27 01:06:14;;;;;;;8.05;2.50;;;5.10;99.90;;;;;;5033576;28;20061;-91
2023/12/27 01:08:39;;;;;;;11.68;2.47;;;5.10;99.90;;;;;;5033187;28;20026;-91
2023/12/27 01:11:05;;;;;;;9.77;2.10;;;5.10;99.90;;;;;;5033041;28;20373;-91
2023/12/27 01:13:32;;;;;;;15.13;3.40;;;5.10;99.90;;;;;;5033510;28;20022;-91
2023/12/27 01:15:59;;;;;;;12.43;2.55;;;5.10;99.90;;;;;;5033857;28;20036;-93
2023/12/27 01:18:25;;;;;;;11.02;2.88;;;5.10;99.90;;;;;;5035548;28;20358;-91
2023/12/27 01:20:51;;;;;;;13.10;2.95;;;5.10;99.90;;;;;;5033973;28;20036;-92
2023/12/27 01:23:17;;;;;;;10.68;2.65;;;5.10;99.90;;;;;;5033665;28;20049;-92
2023/12/27 01:25:43;;;;;;;7.95;2.28;;;5.10;99.90;;;;;;5032984;28;20026;-92
2023/12/27 01:28:08;;;;;;;13.18;3.03;;;5.10;99.90;;;;;;5033420;28;20037;-90
2023/12/27 01:30:35;;;;;;;13.68;3.58;;;5.00;99.90;;;;;;5034316;28;20018;-91
2023/12/27 01:33:01;;;;;;;7.60;3.05;;;5.00;99.90;;;;;;5035125;28;20049;-90
2023/12/27 01:35:27;;;;;;;8.43;2.90;;;5.00;99.90;;;;;;5033842;28;20028;-91
2023/12/27 01:37:53;;;;;;;9.48;2.80;;;5.00;99.90;;;;;;5034103;28;20523;-91
2023/12/27 01:40:19;;;;;;;9.77;3.10;;;4.90;99.90;;;;;;5032522;28;20071;-90
2023/12/27 01:42:45;;;;;;;17.08;3.42;;;4.90;99.90;;;;;;5032403;28;20481;-91
2023/12/27 01:45:10;;;;;;;9.57;2.65;;;4.90;99.90;;;;;;5033668;28;20033;-91
2023/12/27 01:47:37;;;;;;;11.30;2.85;;;4.90;99.90;;;;;;5032096;28;20033;-92
2023/12/27 01:50:07;;;;;;;15.63;3.03;;;4.80;99.90;;;;;;5032781;28;20037;-91
2023/12/27 01:52:33;;;;;;;13.68;2.40;;;4.80;99.90;;;;;;5033836;28;20038;-91
2023/12/27 01:54:58;;;;;;;7.30;2.47;;;4.80;99.90;;;;;;5033855;28;20021;-91
2023/12/27 01:57:24;;;;;;;7.25;2.30;;;4.80;99.90;;;;;;5033936;28;20060;-92
2023/12/27 01:59:50;;;;;;;6.53;2.22;;;4.70;99.90;;;;;;5033966;28;20025;-90
2023/12/27 02:02:16;;;;;;;6.75;1.83;;;4.70;99.90;;;;;;5033924;28;20036;-92
2023/12/27 02:04:42;;;;;;;6.63;2.30;;;4.60;99.90;;;;;;5035365;28;20041;-92
2023/12/27 02:07:08;;;;;;;7.55;2.25;;;4.60;99.90;;;;;;5048409;28;20512;-91
2023/12/27 02:09:34;;;;;;;10.80;2.22;;;4.60;99.90;;;;;;5048681;28;20109;-91
2023/12/27 02:12:00;;;;;;;9.30;2.50;;;4.60;99.90;;;;;;5052116;28;20029;-90
2023/12/27 02:14:25;;;;;;;11.65;2.45;;;4.60;99.90;;;;;;5050570;28;20050;-91
2023/12/27 02:16:51;;;;;;;9.23;2.78;;;4.50;99.90;;;;;;5049429;28;20064;-90
2023/12/27 02:19:25;;;;;;;8.50;2.47;;;4.50;99.90;;;;;;5046704;28;20029;-90
2023/12/27 02:21:52;;;;;;;9.48;2.40;;;4.50;99.90;;;;;;5047670;28;20029;-90
2023/12/27 02:24:22;;;;;;;6.82;2.15;;;4.50;99.90;;;;;;5049476;28;20025;-89
2023/12/27 02:26:48;;;;;;;11.63;2.80;;;4.50;99.90;;;;;;5049875;28;20038;-90
2023/12/27 02:29:15;;;;;;;9.30;2.97;;;4.50;99.90;;;;;;5047728;28;20029;-90
2023/12/27 02:31:41;;;;;;;10.50;2.22;;;4.50;99.90;;;;;;5047747;28;20037;-91
2023/12/27 02:34:06;;;;;;;10.90;2.13;;;4.50;99.90;;;;;;5045942;28;20397;-92
2023/12/27 02:36:32;;;;;;;8.55;1.90;;;4.50;99.90;;;;;;5043832;28;20140;-90
2023/12/27 02:38:58;;;;;;;7.78;1.73;;;4.50;99.90;;;;;;5043970;28;20121;-91
2023/12/27 02:41:24;;;;;;;9.80;2.00;;;4.50;99.90;;;;;;5042135;28;20022;-90
2023/12/27 02:43:49;;;;;;;8.55;1.80;;;4.50;99.90;;;;;;5043171;28;20532;-91
2023/12/27 02:46:15;;;;;;;7.10;1.80;;;4.50;99.90;;;;;;5041682;28;20029;-91
2023/12/27 02:48:41;;;;;;;9.88;2.10;;;4.50;99.90;;;;;;5039444;28;20124;-91
2023/12/27 02:51:07;;;;;;;11.82;2.72;;;4.50;99.90;;;;;;5039496;28;20018;-90
2023/12/27 02:53:32;;;;;;;5.95;2.20;;;4.50;99.90;;;;;;5037565;28;20033;-91
2023/12/27 02:55:58;;;;;;;6.93;2.42;;;4.50;99.90;;;;;;5038664;28;20022;-90
2023/12/27 02:58:24;;;;;;;13.65;2.33;;;4.50;99.90;;;;;;5037237;28;20030;-90
2023/12/27 03:00:49;;;;;;;14.75;2.97;;;4.50;99.90;;;;;;5035983;28;20036;-90
2023/12/27 03:03:15;;;;;;;7.00;2.35;;;4.50;99.90;;;;;;5035208;28;20032;-90
2023/12/27 03:05:41;;;;;;;9.00;2.53;;;4.50;99.90;;;;;;5035531;28;20064;-91
2023/12/27 03:08:07;;;;;;;5.78;2.00;;;4.50;99.90;;;;;;5035105;28;20044;-91
2023/12/27 03:10:32;;;;;;;11.05;2.65;;;4.50;99.90;;;;;;5035144;28;20121;-92
2023/12/27 03:12:58;;;;;;;9.00;2.20;;;4.50;99.90;;;;;;5036370;28;20033;-91
2023/12/27 03:15:24;;;;;;;11.88;2.33;;;4.50;99.90;;;;;;5035032;28;20534;-90
2023/12/27 03:17:50;;;;;;;7.13;2.13;;;4.50;99.90;;;;;;5036421;28;20021;-91
2023/12/27 03:20:15;;;;;;;11.50;2.20;;;4.50;99.90;;;;;;5036212;28;20021;-91
2023/12/27 03:22:41;;;;;;;14.52;2.88;;;4.60;99.90;;;;;;5035761;28;20033;-91
2023/12/27 03:25:07;;;;;;;11.90;3.85;;;4.50;99.90;;;;;;5036457;28;20061;-90
2023/12/27 03:27:33;;;;;;;6.95;1.90;;;4.60;99.90;;;;;;5035632;28;20036;-93
2023/12/27 03:29:58;;;;;;;6.15;2.08;;;4.60;99.90;;;;;;5034652;28;20025;-92
2023/12/27 03:32:24;;;;;;;7.90;2.22;;;4.60;99.90;;;;;;5034078;28;20057;-91
2023/12/27 03:34:50;;;;;;;5.13;2.10;;;4.60;99.90;;;;;;5036669;28;20038;-91
2023/12/27 03:37:16;;;;;;;8.07;2.30;;;4.60;99.90;;;;;;5036059;28;20085;-91
2023/12/27 03:39:46;;;;;;;8.18;2.63;;;4.60;99.90;;;;;;5034451;28;20055;-92
2023/12/27 03:42:14;;;;;;;9.80;2.78;;;4.60;99.90;;;;;;5035079;28;20025;-92
2023/12/27 03:44:42;;;;;;;3.88;1.77;;;4.50;99.90;;;;;;5034398;28;20025;-92
2023/12/27 03:47:07;;;;;;;14.07;3.30;;;4.50;99.90;;;;;;5034137;28;20099;-91
2023/12/27 03:49:33;;;;;;;6.00;2.15;;;4.60;99.90;;;;;;5034669;28;20021;-92
2023/12/27 03:51:59;;;;;;;7.22;2.13;;;4.60;99.90;;;;;;5034331;28;20025;-92
2023/12/27 03:54:24;;;;;;;7.07;2.13;;;4.60;99.90;;;;;;5034050;28;20033;-92
2023/12/27 03:56:50;;;;;;;5.85;1.83;;;4.60;99.90;;;;;;5035129;28;20021;-92
2023/12/27 03:59:16;;;;;;;8.77;2.00;;;4.60;99.90;;;;;;5033934;28;20114;-91
2023/12/27 04:01:41;;;;;;;7.28;1.92;;;4.60;99.90;;;;;;5034022;28;20168;-92
2023/12/27 04:04:08;;;;;;;9.80;2.33;;;4.60;99.90;;;;;;5033978;28;20499;-90
2023/12/27 04:06:33;;;;;;;6.72;2.03;;;4.60;99.90;;;;;;5033802;28;20029;-91
2023/12/27 04:08:59;;;;;;;10.05;2.00;;;4.60;99.90;;;;;;5034734;28;20432;-92
2023/12/27 04:11:25;;;;;;;10.05;2.13;;;4.60;99.90;;;;;;5034281;28;20073;-92
2023/12/27 04:13:50;;;;;;;9.38;2.20;;;4.60;99.90;;;;;;5033869;28;20447;-91
2023/12/27 04:16:16;;;;;;;6.05;2.20;;;4.60;99.90;;;;;;5033812;28;20025;-92
2023/12/27 04:18:42;;;;;;;7.60;2.65;;;4.60;99.90;;;;;;5036407;28;20069;-91
2023/12/27 04:21:07;;;;;;;4.85;2.13;;;4.60;99.90;;;;;;5034752;28;20117;-90
2023/12/27 04:23:33;;;;;;;6.43;2.40;;;4.60;99.90;;;;;;5033194;28;20065;-91
2023/12/27 04:25:59;;;;;;;5.90;2.03;;;4.60;99.90;;;;;;5033399;28;20084;-92
2023/12/27 04:28:24;;;;;;;4.97;2.30;;;4.60;99.90;;;;;;5033756;28;20029;-93
2023/12/27 04:30:50;;;;;;;9.02;2.08;;;4.60;99.90;;;;;;5033639;28;20370;-92
2023/12/27 04:33:16;;;;;;;5.20;1.80;;;4.60;99.90;;;;;;5032592;28;20056;-92
2023/12/27 04:35:42;;;;;;;6.97;2.13;;;4.60;99.90;;;;;;5034429;28;20021;-91
2023/12/27 04:38:13;;;;;;;4.88;1.83;;;4.70;99.90;;;;;;5032983;28;20527;-90
2023/12/27 04:40:42;;;;;;;;;;;4.60;99.90;;;;;;5033841;28;20025;-92
2023/12/27 04:43:08;;;;;;;6.85;1.65;;;4.70;99.90;;;;;;5033518;28;19951;-92
2023/12/27 04:45:33;;;;;;;3.65;1.40;;;4.70;99.90;;;;;;5033042;28;20030;-91
2023/12/27 04:47:59;;;;;;;7.68;1.90;;;4.70;99.90;;;;;;5032851;28;20459;-92
2023/12/27 04:50:25;;;;;;;5.57;1.90;;;4.70;99.90;;;;;;5033103;28;20017;-92
2023/12/27 04:52:50;;;;;;;8.38;1.90;;;4.70;99.90;;;;;;5034108;28;20108;-92
2023/12/27 04:55:16;;;;;;;4.90;2.20;;;4.70;99.90;;;;;;5034180;28;20072;-93
2023/12/27 04:57:42;;;;;;;6.10;2.35;;;4.70;99.90;;;;;;5034094;28;20389;-92
2023/12/27 05:00:08;;;;;;;6.70;2.00;;;4.70;99.90;;;;;;5032712;28;20083;-91
2023/12/27 05:02:33;;;;;;;7.07;1.92;;;4.70;99.90;;;;;;5032779;28;20534;-92
2023/12/27 05:04:59;;;;;;;4.00;1.83;;;4.70;99.90;;;;;;5032542;28;20030;-91
2023/12/27 05:07:25;;;;;;;2.50;1.75;;;4.70;99.90;;;;;;5033606;28;20047;-92
2023/12/27 05:09:50;;;;;;;3.08;1.55;;;4.70;99.90;;;;;;5032786;28;20021;-92
2023/12/27 05:12:16;;;;;;;5.35;1.70;;;4.70;99.90;;;;;;5032872;28;20029;-91
2023/12/27 05:14:42;;;;;;;3.22;2.00;;;4.70;99.90;;;;;;5033395;28;20476;-91
2023/12/27 05:17:07;;;;;;;3.45;1.70;;;4.70;99.90;;;;;;5032739;28;20026;-91
2023/12/27 05:19:37;;;;;;;4.78;1.85;;;4.70;99.90;;;;;;5033782;28;20040;-91
2023/12/27 05:22:03;;;;;;;3.80;1.77;;;4.70;99.90;;;;;;5032638;28;20083;-90
2023/12/27 05:24:29;;;;;;;4.00;1.50;;;4.70;99.90;;;;;;5032560;28;20120;-92
2023/12/27 05:26:55;;;;;;;6.78;1.80;;;4.80;99.90;;;;;;5033608;28;20080;-90
2023/12/27 05:29:20;;;;;;;2.25;1.38;;;4.80;99.90;;;;;;5033761;28;20036;-92
2023/12/27 05:31:46;;;;;;;2.95;1.48;;;4.80;99.90;;;;;;5033222;28;20025;-91
2023/12/27 05:34:12;;;;;;;1.88;1.27;;;4.80;99.90;;;;;;5032812;28;20025;-92
2023/12/27 05:36:37;;;;;;;3.15;1.40;;;4.80;99.90;;;;;;5032633;28;20034;-91
2023/12/27 05:39:03;;;;;;;2.15;1.50;;;4.80;99.90;;;;;;5034178;28;20045;-92
2023/12/27 05:41:29;;;;;;;3.97;1.40;;;4.80;99.90;;;;;;5032958;28;20029;-91
2023/12/27 05:43:55;;;;;;;2.35;1.55;;;4.90;99.90;;;;;;5034229;28;20021;-90
2023/12/27 05:46:22;;;;;;;2.00;1.15;;;4.90;99.90;;;;;;5036688;28;20041;-91
2023/12/27 05:48:47;;;;;;;4.13;1.70;;;4.90;99.90;;;;;;5037696;28;20033;-91
2023/12/27 05:51:13;;;;;;;2.15;1.40;;;4.90;99.90;;;;;;5037513;28;20025;-91
2023/12/27 05:53:38;;;;;;;2.35;1.40;;;4.90;99.90;;;;;;5036397;28;20038;-92
2023/12/27 05:56:04;;;;;;;4.50;1.50;;;4.90;99.90;;;;;;5036293;28;20113;-92
2023/12/27 05:58:30;;;;;;;3.25;1.48;;;4.90;99.90;;;;;;5037590;28;20071;-92
2023/12/27 06:00:56;;;;;;;3.08;1.40;;;4.90;99.90;;;;;;5036478;28;20026;-92
2023/12/27 06:03:22;;;;;;;1.73;1.30;;;5.00;99.90;;;;;;5036400;28;20029;-92
2023/12/27 06:05:48;;;;;;;1.63;1.17;;;5.00;99.90;;;;;;5036934;28;20039;-91
2023/12/27 06:08:15;;;;;;;2.95;1.20;;;5.00;99.90;;;;;;5036001;28;20034;-91
2023/12/27 06:10:41;;;;;;;4.22;1.10;;;5.00;99.90;;;;;;5036277;28;20612;-92
2023/12/27 06:13:07;;;;;;;1.95;1.02;;;5.00;99.90;;;;;;5036086;28;20033;-91
2023/12/27 06:15:33;;;;;;;3.65;1.75;;;5.00;99.90;;;;;;5036158;28;20033;-91
2023/12/27 06:17:58;;;;;;;1.23;0.93;;;5.00;99.90;;;;;;5036801;28;20100;-91
2023/12/27 06:20:24;;;;;;;2.00;1.20;;;5.00;99.90;;;;;;5036807;28;20056;-92
2023/12/27 06:22:50;;;;;;;1.48;1.00;;;5.00;99.90;;;;;;5036891;28;20025;-92
2023/12/27 06:25:16;;;;;;;1.38;0.82;;;5.00;99.90;;;;;;5037126;28;20025;-91
2023/12/27 06:27:41;;;;;;;1.50;1.00;;;5.10;99.90;;;;;;5036626;28;20037;-91
2023/12/27 06:30:08;;;;;;;1.88;0.90;;;5.10;99.90;;;;;;5036683;28;20025;-92
2023/12/27 06:32:33;;;;;;;1.73;1.00;;;5.10;99.90;;;;;;5037039;28;20057;-91
2023/12/27 06:34:59;;;;;;;4.65;2.28;;;5.10;99.90;;;;;;5035640;28;20040;-91
2023/12/27 06:37:25;;;;;;;4.50;0.88;;;5.10;99.90;;;;;;5036994;28;20025;-91
2023/12/27 06:39:50;;;;;;;1.15;0.85;;;5.10;99.90;;;;;;5035685;28;20491;-91
2023/12/27 06:42:16;;;;;;;0.98;0.90;;;5.10;99.90;;;;;;5036776;28;20025;-92
2023/12/27 06:44:42;;;;;;;1.52;0.90;;;5.10;99.90;;;;;;5035730;28;20034;-92
2023/12/27 06:47:07;;;;;;;1.00;0.88;;;5.20;99.90;;;;;;5036344;28;20487;-92
2023/12/27 06:49:33;;;;;;;1.10;1.00;;;5.20;99.90;;;;;;5036514;28;20515;-91
2023/12/27 06:51:59;;;;;;;0.70;0.70;;;5.30;99.90;;;;;;5038290;28;20603;-91
2023/12/27 06:54:25;;;;;;;0.88;0.80;;;5.30;99.90;;;;;;5036264;28;20096;-91
2023/12/27 06:56:50;;;;;;;2.70;0.80;;;5.30;99.90;;;;;;5036515;28;20092;-92
2023/12/27 06:59:16;;;;;;;1.48;0.60;;;5.30;99.90;;;;;;5038319;28;20081;-91
2023/12/27 07:01:42;;;;;;;0.88;0.60;;;5.30;99.90;;;;;;5038868;28;20037;-91
2023/12/27 07:04:08;;;;;;;2.53;0.98;;;5.30;99.90;;;;;;5038733;28;20026;-91
2023/12/27 07:06:34;;;;;;;0.90;0.80;;;5.40;99.90;;;;;;5038606;28;20061;-91
2023/12/27 07:09:00;;;;;;;0.70;0.57;;;5.40;99.90;;;;;;5037324;28;20026;-91
2023/12/27 07:11:25;;;;;;;1.67;0.90;;;5.40;99.90;;;;;;5038287;28;20021;-91
2023/12/27 07:13:52;;;;;;;1.05;0.60;;;5.50;99.90;;;;;;5036841;28;20029;-91
2023/12/27 07:16:18;;;;;;;0.77;0.60;;;5.50;99.90;;;;;;5037917;28;20033;-91
2023/12/27 07:18:44;;;;;;;0.77;0.70;;;5.50;99.90;;;;;;5036563;28;20116;-91
2023/12/27 07:21:11;;;;;;;0.73;0.68;;;5.50;99.90;;;;;;5035389;28;20029;-91
2023/12/27 07:23:37;;;;;;;0.93;0.77;;;5.60;99.90;;;;;;5035112;28;20037;-91
2023/12/27 07:26:04;;;;;;;1.25;0.65;;;5.60;99.90;;;;;;5035422;28;20412;-91
2023/12/27 07:28:30;;;;;;;0.70;0.70;;;5.60;99.90;;;;;;5035498;28;20037;-91
2023/12/27 07:30:57;;;;;;;0.70;0.70;;;5.70;99.90;;;;;;5036073;28;20017;-90
2023/12/27 07:33:25;;;;;;;1.42;0.82;;;5.70;99.90;;;;;;5036009;28;20049;-91
2023/12/27 07:35:51;;;;;;;1.40;0.70;;;5.70;99.90;;;;;;5034516;28;20290;-93
2023/12/27 07:38:17;;;;;;;0.80;0.80;;;5.80;99.90;;;;;;5035079;28;20203;-92
2023/12/27 07:40:44;;;;;;;1.13;1.05;;;5.80;99.90;;;;;;5035750;28;20035;-90
2023/12/27 07:43:10;;;;;;;1.38;1.20;;;5.90;99.90;;;;;;5034692;28;20029;-90
2023/12/27 07:45:36;;;;;;;7.95;1.30;;;5.90;99.90;;;;;;5035276;28;20022;-90
2023/12/27 07:48:02;;;;;;;2.88;1.20;;;5.90;99.90;;;;;;5036491;28;20057;-91
2023/12/27 07:50:28;;;;;;;1.88;1.20;;;6.00;99.90;;;;;;5037123;28;20068;-91
2023/12/27 07:52:53;;;;;;;1.88;1.08;;;6.10;99.90;;;;;;5037385;28;20453;-91
2023/12/27 07:55:19;;;;;;;4.80;1.30;;;6.00;99.90;;;;;;5036211;28;20021;-90
2023/12/27 07:57:46;;;;;;;1.55;1.25;;;6.10;99.90;;;;;;5037324;28;20112;-91
2023/12/27 08:00:15;;;;;;;2.25;1.58;;;6.10;99.90;;;;;;5035353;28;20055;-91
2023/12/27 08:02:43;;;;;;;4.18;1.80;;;6.20;99.90;;;;;;5035370;28;20022;-91
2023/12/27 08:05:09;;;;;;;3.15;1.05;;;6.20;99.90;;;;;;5034756;28;20188;-92
2023/12/27 08:07:35;;;;;;;1.30;1.20;;;6.30;99.90;;;;;;5033328;28;20523;-90
2023/12/27 08:10:02;;;;;;;6.20;1.33;;;6.30;99.90;;;;;;5035308;28;20018;-91
2023/12/27 08:12:28;;;;;;;2.72;1.20;;;6.40;99.90;;;;;;5034022;28;20026;-92
2023/12/27 08:14:54;;;;;;;2.17;1.23;;;6.40;99.90;;;;;;5033574;28;20112;-90
2023/12/27 08:17:19;;;;;;;2.85;1.35;;;6.50;99.90;;;;;;5035358;28;20057;-90
2023/12/27 08:19:45;;;;;;;0.93;0.82;;;6.50;99.90;;;;;;5035113;28;20026;-91
2023/12/27 08:22:11;;;;;;;0.95;0.90;;;6.60;99.90;;;;;;5034872;28;20460;-92
2023/12/27 08:24:37;;;;;;;1.30;1.02;;;6.60;99.90;;;;;;5034210;28;20018;-92
2023/12/27 08:27:03;;;;;;;6.50;1.08;;;6.70;99.90;;;;;;5033420;28;20025;-91
2023/12/27 08:29:28;;;;;;;0.90;0.90;;;6.80;99.90;;;;;;5033399;28;20530;-92
2023/12/27 08:31:54;;;;;;;0.90;0.85;;;6.80;99.90;;;;;;5033652;28;20369;-91
2023/12/27 08:34:20;;;;;;;2.17;0.93;;;6.90;99.90;;;;;;5033484;28;20091;-92
2023/12/27 08:36:47;;;;;;;1.27;1.10;;;7.00;99.90;;;;;;5034976;28;20029;-90
2023/12/27 08:39:13;;;;;;;0.82;0.82;;;7.00;99.90;;;;;;5034739;28;20535;-92
2023/12/27 08:41:39;;;;;;;1.30;0.70;;;7.00;99.90;;;;;;5033631;28;20026;-92
2023/12/27 08:44:05;;;;;;;3.05;0.73;;;7.10;99.90;;;;;;5033226;28;20040;-92
2023/12/27 08:46:31;;;;;;;1.17;1.02;;;7.20;99.90;;;;;;5033178;28;20044;-90
2023/12/27 08:48:56;;;;;;;0.80;0.70;;;7.20;99.90;;;;;;5033132;28;20032;-90
2023/12/27 08:51:22;;;;;;;1.02;0.73;;;7.20;99.90;;;;;;5034329;28;20085;-91
2023/12/27 08:53:48;;;;;;;1.40;0.80;;;7.30;99.90;;;;;;5034856;28;20021;-91
2023/12/27 08:56:14;;;;;;;1.02;0.90;;;7.40;99.90;;;;;;5033290;28;20125;-90
2023/12/27 08:58:40;;;;;;;1.58;0.57;;;7.40;99.90;;;;;;5033153;28;20136;-91
2023/12/27 09:01:06;;;;;;;1.45;1.02;;;7.40;99.90;;;;;;5033152;28;20045;-91
2023/12/27 09:03:31;;;;;;;1.00;0.90;;;7.50;99.90;;;;;;5033097;28;20393;-92
2023/12/27 09:05:57;;;;;;;1.65;0.68;;;7.50;99.90;;;;;;5034163;28;20480;-92
2023/12/27 09:08:23;;;;;;;1.67;0.50;;;7.60;99.90;;;;;;5034624;28;20439;-91
2023/12/27 09:10:49;;;;;;;0.80;0.80;;;7.60;99.90;;;;;;5034939;28;20029;-92
2023/12/27 09:13:15;;;;;;;1.95;0.63;;;7.70;99.90;;;;;;5033066;28;20538;-93
2023/12/27 09:15:41;;;;;;;0.77;0.70;;;7.70;99.90;;;;;;5034256;28;20021;-91
2023/12/27 09:18:08;;;;;;;0.82;0.80;;;7.80;99.90;;;;;;5034159;28;20026;-92
2023/12/27 09:20:34;;;;;;;0.93;0.77;;;7.80;99.90;;;;;;5033525;28;20072;-93
2023/12/27 09:23:00;;;;;;;3.38;0.95;;;7.90;99.90;;;;;;5033756;28;20022;-92
2023/12/27 09:25:29;;;;;;;2.63;0.95;;;7.90;99.90;;;;;;5035416;28;20021;-91
2023/12/27 09:27:55;;;;;;;0.60;0.60;;;7.90;99.90;;;;;;5035060;28;20037;-92
2023/12/27 09:30:21;;;;;;;1.15;0.85;;;8.00;99.90;;;;;;5037318;28;20029;-91
2023/12/27 09:32:48;;;;;;;1.35;0.73;;;8.00;99.90;;;;;;5035729;28;20136;-92
2023/12/27 09:35:13;;;;;;;1.00;0.90;;;8.10;99.90;;;;;;5037879;28;20025;-91
2023/12/27 09:37:39;;;;;;;0.82;0.82;;;8.10;99.90;;;;;;5038314;28;20026;-91
2023/12/27 09:40:06;;;;;;;1.45;0.88;;;8.20;99.90;;;;;;5037532;28;20542;-89
2023/12/27 09:42:32;;;;;;;2.20;1.20;;;8.20;99.90;;;;;;5040271;28;20072;-92
2023/12/27 09:45:00;;;;;;;1.77;1.20;;;8.30;99.90;;;;;;5043322;28;20017;-91
2023/12/27 09:47:28;;;;;;;3.53;1.35;;;8.30;99.90;;;;;;5040983;28;20033;-91
2023/12/27 09:49:56;;;;;;;4.05;1.20;;;8.40;99.90;;;;;;5040433;28;20032;-91
2023/12/27 09:52:23;;;;;;;4.15;0.95;;;8.40;99.90;;;;;;5040910;28;20045;-92
2023/12/27 09:54:50;;;;;;;1.70;1.10;;;8.40;99.90;;;;;;5035851;28;20160;-91
2023/12/27 09:57:16;;;;;;;2.15;1.00;;;8.50;99.90;;;;;;5036702;28;20040;-91
2023/12/27 09:59:46;;;;;;;2.88;0.70;;;8.50;99.90;;;;;;5033804;28;20025;-90
2023/12/27 10:02:19;;;;;;;1.35;1.10;;;8.60;99.90;;;;;;5033711;28;20041;-90
2023/12/27 10:04:50;;;;;;;2.55;0.90;;;8.60;99.90;;;;;;5033740;28;20032;-90
2023/12/27 10:07:19;;;;;;;2.47;1.10;;;8.60;99.90;;;;;;5034102;28;20506;-90
2023/12/27 10:09:46;;;;;;;2.15;0.93;;;8.70;99.90;;;;;;5032969;28;20480;-91
2023/12/27 10:12:14;;;;;;;2.03;1.17;;;8.80;99.90;;;;;;5033090;28;20404;-92
2023/12/27 10:14:40;;;;;;;2.33;1.25;;;8.80;99.90;;;;;;5033048;28;20029;-90
2023/12/27 10:17:06;;;;;;;1.90;1.13;;;8.90;99.90;;;;;;5032750;28;20021;-90
2023/12/27 10:19:40;;;;;;;1.85;1.00;;;8.90;99.90;;;;;;5033805;28;20040;-91
2023/12/27 10:22:06;;;;;;;2.83;1.20;;;9.00;99.90;;;;;;5034087;28;20022;-90
2023/12/27 10:24:34;;;;;;;1.65;0.90;;;9.00;99.90;;;;;;5032542;28;20128;-91
2023/12/27 10:27:09;;;;;;;1.85;0.90;;;9.10;99.90;;;;;;5032284;28;20495;-91
2023/12/27 10:29:36;;;;;;;1.15;0.90;;;9.10;99.90;;;;;;5032683;28;20026;-92
2023/12/27 10:32:03;;;;;;;1.15;0.80;;;9.20;99.90;;;;;;5035385;28;20502;-92
2023/12/27 10:34:30;;;;;;;1.65;0.98;;;9.20;99.90;;;;;;5035957;28;20029;-91
2023/12/27 10:36:57;;;;;;;3.60;1.30;;;9.20;99.90;;;;;;5037225;28;20045;-91
2023/12/27 10:39:23;;;;;;;1.83;1.27;;;9.30;99.90;;;;;;5036170;28;20052;-90
2023/12/27 10:41:55;;;;;;;1.13;0.90;;;9.30;99.90;;;;;;5036089;28;20025;-91
2023/12/27 10:44:21;;;;;;;3.47;1.15;;;9.30;99.90;;;;;;5036070;28;20461;-91
2023/12/27 10:46:51;;;;;;;1.70;1.30;;;9.40;99.90;;;;;;5036516;28;20044;-91
2023/12/27 10:49:18;;;;;;;6.13;2.22;;;9.40;99.90;;;;;;5036012;28;20022;-91
2023/12/27 10:51:45;;;;;;;2.53;1.35;;;9.50;99.90;;;;;;5035901;28;20041;-91
2023/12/27 10:54:13;;;;;;;2.30;0.88;;;9.50;99.90;;;;;;5035571;28;20463;-91
2023/12/27 10:56:40;;;;;;;4.28;1.25;;;9.60;99.90;;;;;;5035655;28;20075;-90
2023/12/27 10:59:09;;;;;;;0.93;0.70;;;9.50;99.90;;;;;;5035290;28;20105;-90
2023/12/27 11:01:37;;;;;;;1.25;0.95;;;9.60;99.90;;;;;;5035027;28;20065;-90
2023/12/27 11:04:16;;;;;;;2.85;0.95;;;9.60;99.90;;;;;;5035639;28;20067;-92
2023/12/27 11:06:42;;;;;;;1.60;1.08;;;9.60;99.90;;;;;;5036209;28;20033;-90
2023/12/27 11:09:09;;;;;;;2.83;1.70;;;9.70;99.90;;;;;;5035974;28;20477;-90
2023/12/27 11:11:39;;;;;;;1.92;1.55;;;9.70;99.90;;;;;;5036135;28;20105;-91
2023/12/27 11:14:08;;;;;;;2.20;1.00;;;9.70;99.90;;;;;;5035240;28;20040;-90
2023/12/27 11:16:35;;;;;;;2.85;1.40;;;9.80;99.90;;;;;;5035288;28;20214;-91
2023/12/27 11:19:06;;;;;;;4.55;2.08;;;9.80;99.90;;;;;;5036677;28;20040;-91
2023/12/27 11:21:36;;;;;;;1.25;1.13;;;9.80;99.90;;;;;;5036483;28;20018;-92
2023/12/27 11:24:05;;;;;;;3.38;1.80;;;9.80;99.90;;;;;;5036598;28;20049;-90
2023/12/27 11:26:36;;;;;;;3.50;2.20;;;9.90;99.90;;;;;;5036784;28;20021;-90
2023/12/27 11:29:06;;;;;;;;;;;9.90;99.90;;;;;;5039462;28;20484;-89
2023/12/27 11:31:32;;;;;;;4.93;1.55;;;9.90;99.90;;;;;;5037351;28;19913;-90
2023/12/27 11:33:59;;;;;;;3.00;1.85;;;10.00;99.90;;;;;;5037130;28;20049;-90
2023/12/27 11:36:25;;;;;;;3.60;1.65;;;10.00;99.90;;;;;;5038319;28;20033;-88
2023/12/27 11:38:53;;;;;;;5.00;1.40;;;9.90;99.90;;;;;;5039780;28;20071;-91
2023/12/27 11:41:19;;;;;;;3.83;1.80;;;10.00;99.90;;;;;;5038219;28;20546;-90
2023/12/27 11:44:03;;;;;;;6.25;1.70;;;10.00;99.90;;;;;;5038116;28;20025;-90
2023/12/27 11:46:30;;;;;;;4.28;1.85;;;10.10;99.90;;;;;;5036161;28;20056;-91
2023/12/27 11:49:00;;;;;;;3.35;1.50;;;10.20;99.90;;;;;;5035992;28;20029;-90
2023/12/27 11:51:32;;;;;;;5.20;1.63;;;10.20;99.90;;;;;;5036442;28;20040;-90
2023/12/27 11:53:59;;;;;;;4.15;1.88;;;10.20;99.90;;;;;;5036795;28;20295;-89
2023/12/27 11:56:30;;;;;;;4.65;1.90;;;10.30;99.90;;;;;;5038643;28;20056;-90
2023/12/27 11:58:56;;;;;;;;;;;10.40;99.90;;;;;;5041361;28;20041;-90
2023/12/27 12:01:30;;;;;;;4.00;1.40;;;10.40;99.90;;;;;;5041531;28;19916;-91
2023/12/27 12:04:14;;;;;;;9.68;4.38;;;10.50;99.90;;;;;;5039544;28;20021;-91
2023/12/27 12:07:07;;;;;;;4.65;1.70;;;10.50;99.90;;;;;;5039698;28;20104;-91
2023/12/27 12:09:37;;;;;;;4.18;1.50;;;10.60;99.90;;;;;;5039102;28;20135;-89
2023/12/27 12:12:16;;;;;;;6.82;2.95;;;10.70;99.90;;;;;;5037953;28;20025;-91
2023/12/27 12:14:42;;;;;;;3.00;1.00;;;10.70;99.90;;;;;;5037619;28;20107;-89
2023/12/27 12:17:12;;;;;;;4.80;1.80;;;10.80;99.90;;;;;;5037583;28;20460;-89
2023/12/27 12:19:39;;;;;;;2.75;1.27;;;10.80;99.90;;;;;;5036255;28;20096;-90
2023/12/27 12:22:05;;;;;;;4.63;1.50;;;10.90;99.90;;;;;;5035703;28;20029;-90
2023/12/27 12:24:32;;;;;;;2.88;1.27;;;10.90;99.90;;;;;;5035720;28;20022;-90
2023/12/27 12:26:59;;;;;;;1.50;1.05;;;11.00;99.90;;;;;;5036562;28;20037;-90
2023/12/27 12:29:26;;;;;;;2.78;1.10;;;11.00;99.90;;;;;;5037858;28;20049;-90
2023/12/27 12:31:55;;;;;;;4.95;1.10;;;11.00;99.90;;;;;;5036167;28;20115;-89
2023/12/27 12:34:25;;;;;;;3.88;1.35;;;11.10;99.90;;;;;;5032919;28;20033;-90
2023/12/27 12:36:54;;;;;;;2.05;0.60;;;11.10;99.90;;;;;;5034667;28;20025;-90
2023/12/27 12:39:20;;;;;;;2.88;1.00;;;11.20;99.90;;;;;;5040039;28;20037;-90
2023/12/27 12:41:47;;;;;;;1.80;0.95;;;11.20;99.90;;;;;;5041619;28;20094;-90
2023/12/27 12:44:13;;;;;;;3.22;0.98;;;11.20;99.90;;;;;;5034985;28;20030;-90
2023/12/27 12:46:40;;;;;;;3.95;1.35;;;11.20;99.90;;;;;;5034703;28;20599;-90
2023/12/27 12:49:06;;;;;;;1.50;0.63;;;11.20;99.90;;;;;;5033487;28;20040;-89
2023/12/27 12:51:33;;;;;;;2.90;0.93;;;11.20;99.90;;;;;;5034446;28;20029;-89